Time;durP1;ratioP1;P1;durP2;ratioP2;P2;SDS_P1;SDS_P2;PMS_P1;PMS_P2;Temp;Humidity;BMP_temperature;BMP_pressure;BME280_temperature;BME280_humidity;BME280_pressure;Samples;Min_cycle;Max_cycle;Signal;HPM_P1;HPM_P2
2022/09/01 00:01:25;;;;;;;;;15.75;14.00;;;;;25.76;42.27;101131.41;5038308;28;45817;-49
2022/09/01 00:03:52;;;;;;;;;12.50;11.00;;;;;25.74;42.15;101128.03;5038908;28;45284;-48
2022/09/01 00:06:22;;;;;;;;;12.00;11.50;;;;;25.75;42.34;101124.38;5038598;28;45429;-44
2022/09/01 00:08:52;;;;;;;;;14.00;12.25;;;;;25.75;42.33;101129.69;5038487;28;46181;-48
2022/09/01 00:11:19;;;;;;;;;12.25;11.50;;;;;25.74;42.20;101117.41;5038434;28;45481;-50
2022/09/01 00:13:45;;;;;;;;;14.50;13.50;;;;;25.75;41.96;101132.34;5037567;28;45453;-45
2022/09/01 00:16:12;;;;;;;;;11.25;11.25;;;;;25.74;42.13;101125.38;5038649;28;45259;-62
2022/09/01 00:18:40;;;;;;;;;12.00;12.00;;;;;25.75;42.07;101124.38;5038481;28;45779;-59
2022/09/01 00:21:07;;;;;;;;;15.50;13.00;;;;;25.73;41.76;101119.19;5038592;28;45366;-56
2022/09/01 00:23:32;;;;;;;;;15.00;12.25;;;;;25.73;41.76;101123.69;5038601;28;45346;-54
2022/09/01 00:25:57;;;;;;;;;12.25;11.25;;;;;25.73;42.46;101115.72;5038713;28;45382;-47
2022/09/01 00:28:23;;;;;;;;;13.00;13.00;;;;;25.74;42.34;101122.72;5036813;28;45456;-54
2022/09/01 00:30:48;;;;;;;;;14.00;11.75;;;;;25.73;42.07;101121.84;5038345;28;45326;-46
2022/09/01 00:33:14;;;;;;;;;13.25;13.25;;;;;25.72;42.10;101116.69;5038180;28;45388;-43
2022/09/01 00:35:39;;;;;;;;;13.75;12.75;;;;;25.72;41.90;101116.69;5037219;28;45657;-46
2022/09/01 00:38:04;;;;;;;;;12.25;12.25;;;;;25.72;42.54;101114.84;5038186;28;46217;-46
2022/09/01 00:40:30;;;;;;;;;15.00;12.25;;;;;25.72;42.28;101109.53;5038179;28;45405;-45
2022/09/01 00:42:56;;;;;;;;;14.25;12.00;;;;;25.72;42.04;101116.69;5037430;28;45445;-44
2022/09/01 00:45:21;;;;;;;;;12.00;11.25;;;;;25.72;42.43;101111.38;5037988;28;45570;-54
2022/09/01 00:47:48;;;;;;;;;10.75;9.50;;;;;25.72;42.13;101121.97;5038117;28;45483;-51
2022/09/01 00:50:16;;;;;;;;;15.00;11.25;;;;;25.71;42.05;101113.16;5037935;28;45406;-58
2022/09/01 00:52:47;;;;;;;;;13.75;12.00;;;;;25.72;42.01;101116.69;5038125;28;45464;-52
2022/09/01 00:55:25;;;;;;;;;14.00;12.75;;;;;25.72;42.39;101111.38;5038029;28;45461;-54
2022/09/01 00:57:51;;;;;;;;;13.25;11.50;;;;;25.72;41.96;101116.69;5036643;28;46301;-52
2022/09/01 01:00:20;;;;;;;;;12.50;11.75;;;;;25.70;42.38;101111.47;5036814;28;45292;-52
2022/09/01 01:02:47;;;;;;;;;11.00;10.75;;;;;25.71;42.60;101109.66;5038069;28;45419;-53
2022/09/01 01:05:14;;;;;;;;;14.50;14.00;;;;;25.70;42.15;101108.81;5037837;28;45469;-50
2022/09/01 01:07:43;;;;;;;;;12.00;12.00;;;;;25.70;42.27;101105.31;5037816;28;47097;-52
2022/09/01 01:10:11;;;;;;;;;12.00;11.25;;;;;25.69;42.00;101098.31;5036444;28;45848;-58
2022/09/01 01:12:39;;;;;;;;;10.75;10.75;;;;;25.70;42.38;101100.84;5036775;28;45355;-51
2022/09/01 01:15:10;;;;;;;;;14.25;12.50;;;;;25.69;42.25;101103.63;5037462;28;45695;-46
2022/09/01 01:17:36;;;;;;;;;12.75;12.50;;;;;25.69;42.34;101100.97;5037569;28;46744;-46
2022/09/01 01:23:07;;;;;;;;;13.50;11.00;;;;;25.68;42.76;101099.25;5037809;28;45193;-43
2022/09/01 01:25:41;;;;;;;;;11.00;11.00;;;;;25.67;42.62;101098.44;5037944;28;45302;-47
2022/09/01 01:28:17;;;;;;;;;11.25;10.75;;;;;25.67;42.14;101097.56;5036153;28;46563;-48
2022/09/01 01:30:51;;;;;;;;;14.50;12.00;;;;;25.67;42.82;101098.44;5037259;28;45272;-49
2022/09/01 01:33:24;;;;;;;;;12.25;12.00;;;;;25.66;42.38;101096.72;5037209;28;45276;-54
2022/09/01 01:35:51;;;;;;;;;12.00;12.00;;;;;25.65;42.45;101100.34;5037696;28;45500;-50
2022/09/01 01:38:21;;;;;;;;;11.00;11.00;;;;;25.66;42.10;101104.69;5037028;28;46164;-55
2022/09/01 01:40:47;;;;;;;;;14.00;12.75;;;;;25.66;42.44;101104.69;5036654;28;45858;-49
2022/09/01 01:43:20;;;;;;;;;11.00;11.00;;;;;25.66;42.69;101106.50;5035730;28;45597;-42
2022/09/01 01:45:52;;;;;;;;;11.75;10.75;;;;;25.66;42.43;101101.19;5036250;28;45414;-52
2022/09/01 01:48:22;;;;;;;;;12.50;11.50;;;;;25.65;42.46;101102.13;5036523;28;47204;-54
2022/09/01 01:50:51;;;;;;;;;15.00;10.50;;;;;25.65;42.32;101104.78;5037277;28;45874;-48
2022/09/01 01:53:18;;;;;;;;;15.50;13.00;;;;;25.65;42.75;101097.69;5036858;28;45260;-54
2022/09/01 01:55:49;;;;;;;;;12.25;12.25;;;;;25.65;42.51;101110.97;5037329;28;45243;-56
2022/09/01 01:58:20;;;;;;;;;12.50;11.00;;;;;25.65;42.52;101104.78;5035263;28;45452;-53
2022/09/01 02:00:47;;;;;;;;;12.00;10.25;;;;;25.65;42.59;101112.75;5036679;28;45317;-51
2022/09/01 02:03:18;;;;;;;;;12.25;12.25;;;;;25.65;42.37;101110.09;5036830;28;45452;-57
2022/09/01 02:05:45;;;;;;;;;14.25;11.50;;;;;25.64;42.43;101103.94;5036942;28;45455;-57
2022/09/01 02:08:11;;;;;;;;;11.00;10.50;;;;;25.65;42.73;101104.78;5036505;28;46136;-45
2022/09/01 02:10:44;;;;;;;;;12.25;11.00;;;;;25.64;42.82;101103.94;5035824;28;45512;-52
2022/09/01 02:13:15;;;;;;;;;13.25;12.00;;;;;25.63;42.46;101108.41;5033869;28;45254;-49
2022/09/01 02:15:44;;;;;;;;;12.25;10.75;;;;;25.62;42.99;101109.38;5036997;28;45260;-47
2022/09/01 02:18:16;;;;;;;;;10.50;10.50;;;;;25.64;42.63;101111.91;5036318;28;47219;-55
2022/09/01 02:20:43;;;;;;;;;12.50;12.50;;;;;25.64;42.80;101109.25;5036646;28;45196;-52
2022/09/01 02:23:09;;;;;;;;;14.25;13.25;;;;;25.64;42.90;101109.25;5036458;28;45317;-45
2022/09/01 02:25:41;;;;;;;;;12.50;10.75;;;;;25.63;42.69;101112.88;5036992;28;45550;-44
2022/09/01 02:28:11;;;;;;;;;11.00;10.25;;;;;25.63;42.58;101113.72;5035148;28;45440;-57
2022/09/01 02:30:40;;;;;;;;;10.00;10.00;;;;;25.63;42.58;101113.72;5036171;28;45982;-64
2022/09/01 02:33:07;;;;;;;;;12.50;11.50;;;;;25.62;43.27;101114.69;5036370;28;45448;-61
2022/09/01 02:35:36;;;;;;;;;10.50;10.50;;;;;25.62;42.77;101112.03;5036689;28;45619;-61
2022/09/01 02:38:03;;;;;;;;;13.75;12.50;;;;;25.61;42.89;101113.00;5036376;28;46201;-44
2022/09/01 02:40:30;;;;;;;;;12.00;11.00;;;;;25.61;42.82;101118.31;5036106;28;45878;-43
2022/09/01 02:42:58;;;;;;;;;11.75;11.75;;;;;25.61;42.95;101115.66;5035342;28;45456;-50
2022/09/01 02:45:25;;;;;;;;;11.50;11.00;;;;;25.61;42.87;101117.44;5036292;28;45212;-44
2022/09/01 02:47:52;;;;;;;;;12.75;12.00;;;;;25.61;42.81;101120.97;5036257;28;45558;-57
2022/09/01 02:50:18;;;;;;;;;12.25;11.25;;;;;25.60;43.16;101113.09;5035854;28;45965;-49
2022/09/01 02:52:47;;;;;;;;;11.25;10.00;;;;;25.60;42.95;101106.00;5035049;28;45354;-46
2022/09/01 02:55:13;;;;;;;;;9.00;9.00;;;;;25.60;42.57;101113.97;5036131;28;45279;-42
2022/09/01 02:57:39;;;;;;;;;11.00;11.00;;;;;25.59;43.17;101106.94;5034543;28;46544;-43
2022/09/01 03:00:19;;;;;;;;;11.75;10.00;;;;;25.59;43.27;101100.78;5036079;28;45323;-46
2022/09/01 03:02:46;;;;;;;;;12.75;10.25;;;;;25.58;43.15;101105.25;5036009;28;45429;-45
2022/09/01 03:05:15;;;;;;;;;12.50;11.00;;;;;25.59;42.88;101106.09;5035978;28;45593;-46
2022/09/01 03:07:41;;;;;;;;;10.75;10.75;;;;;25.58;43.38;101102.59;5035875;28;47566;-43
2022/09/01 03:10:08;;;;;;;;;12.25;10.50;;;;;25.58;43.34;101099.06;5034438;28;45920;-49
2022/09/01 03:12:34;;;;;;;;;12.00;12.00;;;;;25.58;43.35;101105.25;5034997;28;45450;-48
2022/09/01 03:14:59;;;;;;;;;10.75;10.00;;;;;25.58;42.84;101104.38;5036027;28;45433;-56
2022/09/01 03:17:24;;;;;;;;;11.50;11.25;;;;;25.57;42.73;101095.59;5035562;28;45592;-53
2022/09/01 03:19:50;;;;;;;;;11.00;11.00;;;;;25.57;43.31;101097.41;5035691;28;45538;-50
2022/09/01 03:22:16;;;;;;;;;12.00;10.25;;;;;25.57;43.44;101094.75;5033959;28;45518;-43
2022/09/01 03:24:41;;;;;;;;;10.75;10.75;;;;;25.57;42.77;101103.56;5034630;28;45536;-50
2022/09/01 03:27:07;;;;;;;;;13.25;10.00;;;;;25.57;42.74;101097.41;5033661;28;56106;-46
2022/09/01 03:29:33;;;;;;;;;11.00;10.00;;;;;25.57;42.81;101092.09;5035642;28;45405;-53
2022/09/01 03:31:58;;;;;;;;;14.00;12.50;;;;;25.56;43.21;101091.25;5035668;28;45646;-50
2022/09/01 03:34:25;;;;;;;;;13.00;11.25;;;;;25.57;42.77;101097.41;5034239;28;45245;-52
2022/09/01 03:36:51;;;;;;;;;13.50;12.00;;;;;25.57;42.98;101092.09;5035384;28;46365;-55
2022/09/01 03:39:17;;;;;;;;;9.75;9.75;;;;;25.56;42.84;101096.56;5035232;28;45484;-57
2022/09/01 03:41:43;;;;;;;;;10.00;9.00;;;;;25.55;43.09;101089.53;5034231;28;45441;-50
2022/09/01 03:44:12;;;;;;;;;5.00;5.00;;;;;25.55;43.45;101086.88;5035426;28;45395;-46
2022/09/01 03:46:39;;;;;;;;;10.75;10.75;;;;;25.54;42.94;101082.53;5035204;28;45939;-48
2022/09/01 03:49:14;;;;;;;;;10.75;10.00;;;;;25.54;43.14;101090.50;5035740;28;46025;-50
2022/09/01 03:51:42;;;;;;;;;11.75;11.25;;;;;25.55;43.10;101096.66;5035313;28;45238;-57
2022/09/01 03:54:07;;;;;;;;;10.75;9.75;;;;;25.54;43.06;101090.50;5035450;28;45358;-43
2022/09/01 03:56:33;;;;;;;;;13.00;11.50;;;;;25.54;43.08;101087.84;5033857;28;46359;-53
2022/09/01 03:58:59;;;;;;;;;13.25;10.50;;;;;25.54;42.97;101087.84;5035165;28;45674;-47
2022/09/01 04:01:26;;;;;;;;;11.00;9.50;;;;;25.54;43.21;101089.66;5034959;28;45276;-54
2022/09/01 04:03:52;;;;;;;;;10.25;10.00;;;;;25.54;43.13;101082.53;5035385;28;45335;-60
2022/09/01 04:06:19;;;;;;;;;13.25;11.25;;;;;25.54;43.54;101087.84;5034776;28;45912;-52
2022/09/01 04:08:45;;;;;;;;;10.75;10.75;;;;;25.53;43.25;101075.53;5034660;28;45843;-58
2022/09/01 04:11:17;;;;;;;;;10.50;9.00;;;;;25.54;43.50;101076.41;5033463;28;45515;-58
2022/09/01 04:13:42;;;;;;;;;14.00;11.25;;;;;25.54;43.11;101073.75;5035204;28;45326;-54
2022/09/01 04:18:08;;;;;;;;;11.75;11.00;;;;;25.52;43.57;101071.19;5034768;28;45477;-44
2022/09/01 04:19:14;;;;;;;;;11.00;11.00;;;;;25.51;43.01;101080.13;5035136;28;45398;-49
2022/09/01 04:21:41;;;;;;;;;12.00;11.00;;;;;25.51;43.60;101080.13;5035198;28;45343;-49
2022/09/01 04:24:08;;;;;;;;;12.00;11.00;;;;;25.50;43.41;101074.91;5035252;28;45612;-54
2022/09/01 04:26:33;;;;;;;;;11.25;10.75;;;;;25.50;43.44;101078.44;5032224;28;46701;-52
2022/09/01 04:28:59;;;;;;;;;9.00;9.00;;;;;25.49;43.19;101074.09;5034989;28;45830;-50
2022/09/01 04:31:25;;;;;;;;;9.50;9.50;;;;;25.49;43.38;101071.44;5034769;28;45533;-44
2022/09/01 04:33:54;;;;;;;;;12.50;9.25;;;;;25.50;42.93;101067.81;5035884;28;45452;-43
2022/09/01 04:36:24;;;;;;;;;11.75;11.00;;;;;25.48;43.07;101072.38;5037834;28;45251;-46
2022/09/01 04:38:55;;;;;;;;;12.25;11.25;;;;;25.46;43.77;101069.84;5038281;28;45228;-44
2022/09/01 04:41:24;;;;;;;;;9.75;9.00;;;;;25.45;43.57;101072.59;5036779;28;45211;-46
2022/09/01 04:43:51;;;;;;;;;10.50;10.50;;;;;25.43;43.37;101067.41;5038398;28;45514;-46
2022/09/01 04:46:19;;;;;;;;;10.75;10.75;;;;;25.41;43.51;101065.84;5037794;28;46245;-59
2022/09/01 04:48:46;;;;;;;;;11.75;10.25;;;;;25.40;43.25;101069.41;5038026;28;46383;-62
2022/09/01 04:51:13;;;;;;;;;10.00;9.00;;;;;25.38;43.89;101068.69;5037840;28;45252;-56
2022/09/01 04:53:41;;;;;;;;;10.25;10.00;;;;;25.37;43.50;101075.78;5038174;28;45414;-64
2022/09/01 04:56:08;;;;;;;;;10.75;9.25;;;;;25.37;43.55;101074.94;5036528;28;46210;-57
2022/09/01 04:58:35;;;;;;;;;10.50;10.00;;;;;25.35;43.33;101069.75;5038417;28;45243;-51
2022/09/01 05:01:12;;;;;;;;;10.75;10.75;;;;;25.32;43.88;101070.81;5036874;28;45302;-48
2022/09/01 05:03:37;;;;;;;;;13.75;13.75;;;;;25.29;43.44;101072.84;5036953;28;45358;-52
2022/09/01 05:06:03;;;;;;;;;15.25;13.00;;;;;25.22;44.34;101077.72;5036688;28;47414;-48
2022/09/01 05:08:29;;;;;;;;;16.50;13.75;;;;;25.17;43.87;101071.94;5036159;28;45506;-45
2022/09/01 05:10:55;;;;;;;;;14.25;12.25;;;;;25.14;43.87;101070.31;5036697;28;45330;-43
2022/09/01 05:13:26;;;;;;;;;14.00;13.00;;;;;25.12;44.33;101080.22;5037661;28;45378;-55
2022/09/01 05:16:04;;;;;;;;;14.25;12.50;;;;;25.11;44.42;101080.31;5037542;28;47027;-52
2022/09/01 05:18:30;;;;;;;;;13.00;13.00;;;;;25.08;44.46;101078.72;5037262;28;45457;-53
2022/09/01 05:20:56;;;;;;;;;16.75;13.00;;;;;25.05;44.00;101078.09;5037823;28;45325;-48
2022/09/01 05:23:22;;;;;;;;;12.75;12.00;;;;;25.01;43.97;101075.66;5037494;28;45518;-50
2022/09/01 05:25:51;;;;;;;;;11.00;11.00;;;;;25.01;43.91;101074.81;5035867;28;46881;-51
2022/09/01 05:28:18;;;;;;;;;12.00;12.00;;;;;25.04;44.41;101073.75;5035786;28;45848;-48
2022/09/01 05:30:45;;;;;;;;;12.00;10.00;;;;;25.05;44.45;101072.78;5037350;28;45475;-53
2022/09/01 05:33:15;;;;;;;;;7.00;5.50;;;;;25.05;44.31;101078.09;5037329;28;45588;-57
2022/09/01 05:35:51;;;;;;;;;12.25;12.25;;;;;25.03;44.29;101075.53;5037364;28;47299;-47
2022/09/01 05:38:17;;;;;;;;;13.50;11.75;;;;;24.98;44.41;101075.88;5035523;28;46072;-49
2022/09/01 05:40:43;;;;;;;;;12.75;10.75;;;;;24.95;44.02;101072.59;5036068;28;45318;-44
2022/09/01 05:43:12;;;;;;;;;11.75;10.75;;;;;24.91;44.48;101074.63;5036053;28;45410;-46
2022/09/01 05:45:42;;;;;;;;;11.50;10.75;;;;;24.90;44.76;101078.22;5036919;28;46345;-45
2022/09/01 05:48:09;;;;;;;;;10.25;8.50;;;;;24.89;44.27;101076.53;5035506;28;45814;-49
2022/09/01 05:50:40;;;;;;;;;10.00;8.75;;;;;24.90;44.85;101080.88;5037609;28;45396;-47
2022/09/01 05:53:09;;;;;;;;;10.75;10.75;;;;;24.91;44.73;101085.22;5036221;28;45498;-49
2022/09/01 05:55:36;;;;;;;;;8.25;8.25;;;;;24.91;44.85;101082.56;5034830;28;46777;-44
2022/09/01 05:58:02;;;;;;;;;8.50;8.50;;;;;24.90;44.55;101077.38;5037219;28;45473;-45
2022/09/01 06:00:33;;;;;;;;;10.00;8.00;;;;;24.88;44.12;101074.81;5036507;28;45408;-43
2022/09/01 06:02:59;;;;;;;;;10.25;10.25;;;;;24.85;44.37;101072.41;5037157;28;45510;-46
2022/09/01 06:05:25;;;;;;;;;10.50;10.50;;;;;24.84;44.84;101078.66;5036519;28;47319;-50
2022/09/01 06:07:56;;;;;;;;;10.25;10.25;;;;;24.81;44.29;101073.56;5036910;28;45414;-49
2022/09/01 06:10:21;;;;;;;;;9.25;9.25;;;;;24.77;44.85;101075.59;5035461;28;45404;-49
2022/09/01 06:12:46;;;;;;;;;12.75;9.75;;;;;24.76;44.96;101084.50;5036867;28;45600;-52
2022/09/01 06:15:14;;;;;;;;;10.25;10.25;;;;;24.75;44.82;101084.63;5035131;28;45586;-50
2022/09/01 06:17:40;;;;;;;;;12.25;10.00;;;;;24.72;44.57;101077.69;5036551;28;45885;-44
2022/09/01 06:20:09;;;;;;;;;9.75;9.00;;;;;24.69;44.58;101081.41;5037121;28;45489;-54
2022/09/01 06:22:35;;;;;;;;;11.25;9.50;;;;;24.69;44.47;101086.72;5035969;28;45501;-53
2022/09/01 06:25:00;;;;;;;;;13.25;11.00;;;;;24.67;45.32;101093.06;5034978;28;46441;-52
2022/09/01 06:27:26;;;;;;;;;12.75;10.50;;;;;24.64;44.65;101087.97;5036402;28;45223;-48
2022/09/01 06:29:53;;;;;;;;;12.00;10.00;;;;;24.61;44.74;101089.03;5035431;28;45303;-44
2022/09/01 06:32:19;;;;;;;;;11.25;10.00;;;;;24.55;44.51;101089.44;5035216;28;45633;-48
2022/09/01 06:34:50;;;;;;;;;11.00;10.00;;;;;24.51;45.10;101087.97;5036368;28;46923;-43
2022/09/01 06:37:16;;;;;;;;;9.50;9.50;;;;;24.49;44.93;101089.88;5036160;28;45227;-43
2022/09/01 06:39:42;;;;;;;;;9.25;9.25;;;;;24.49;45.24;101087.22;5035156;28;45288;-43
2022/09/01 06:42:10;;;;;;;;;12.75;10.00;;;;;24.49;44.70;101090.69;5036680;28;45427;-48
2022/09/01 06:44:35;;;;;;;;;11.50;9.50;;;;;24.48;44.90;101094.31;5036542;28;46460;-45
2022/09/01 06:47:01;;;;;;;;;11.00;10.00;;;;;24.45;45.17;101088.38;5036542;28;45487;-54
2022/09/01 06:49:33;;;;;;;;;12.75;12.00;;;;;24.41;45.20;101087.72;5036114;28;45256;-55
2022/09/01 06:51:59;;;;;;;;;10.25;9.75;;;;;24.37;44.93;101092.41;5035087;28;45343;-57
2022/09/01 06:54:25;;;;;;;;;10.50;10.50;;;;;24.33;45.36;101088.25;5033914;28;45489;-60
2022/09/01 06:56:52;;;;;;;;;12.50;10.50;;;;;24.33;45.47;101090.91;5035506;28;45441;-53
2022/09/01 06:59:18;;;;;;;;;10.50;8.25;;;;;24.36;45.02;101090.69;5035673;28;45208;-46
2022/09/01 07:01:43;;;;;;;;;9.00;8.75;;;;;24.40;45.08;101099.28;5034764;28;45661;-61
2022/09/01 07:04:09;;;;;;;;;14.00;10.00;;;;;24.43;45.34;101090.28;5034175;28;46637;-45
2022/09/01 07:06:35;;;;;;;;;11.50;9.25;;;;;24.47;45.71;101092.63;5036078;28;45188;-56
2022/09/01 07:09:01;;;;;;;;;12.75;12.75;;;;;24.49;44.82;101097.81;5034600;28;45781;-65
2022/09/01 07:11:32;;;;;;;;;12.75;11.25;;;;;24.49;45.28;101097.81;5034371;28;45610;-48
2022/09/01 07:14:02;;;;;;;;;14.00;12.50;;;;;24.46;44.91;101092.72;5035457;28;47302;-56
2022/09/01 07:16:31;;;;;;;;;12.50;11.00;;;;;24.45;45.53;101093.66;5035451;28;45441;-56
2022/09/01 07:19:00;;;;;;;;;11.25;10.25;;;;;24.44;45.03;101095.47;5035711;28;45361;-50
2022/09/01 07:21:27;;;;;;;;;11.50;11.50;;;;;24.43;45.36;101100.88;5035537;28;45426;-44
2022/09/01 07:23:52;;;;;;;;;10.00;9.75;;;;;24.41;45.13;101094.84;5033924;28;47853;-44
2022/09/01 07:26:18;;;;;;;;;12.25;11.00;;;;;24.39;45.23;101095.81;5035289;28;45349;-57
2022/09/01 07:28:45;;;;;;;;;11.50;10.25;;;;;24.42;45.60;101100.03;5034475;28;45315;-47
2022/09/01 07:31:24;;;;;;;;;11.00;9.25;;;;;24.46;45.17;101098.88;5035375;28;45405;-57
2022/09/01 07:33:50;;;;;;;;;9.75;9.75;;;;;24.51;45.36;101103.88;5035405;28;45325;-50
2022/09/01 07:36:18;;;;;;;;;12.25;11.50;;;;;24.55;45.34;101106.19;5033714;28;46231;-44
2022/09/01 07:38:47;;;;;;;;;11.00;9.25;;;;;24.60;45.38;101112.97;5034092;28;45328;-46
2022/09/01 07:41:13;;;;;;;;;9.50;9.50;;;;;24.64;44.60;101099.41;5035387;28;45513;-44
2022/09/01 07:43:43;;;;;;;;;12.75;11.00;;;;;24.69;45.13;101105.28;5035322;28;46179;-43
2022/09/01 07:46:09;;;;;;;;;12.25;11.50;;;;;24.73;45.02;101099.78;5034766;28;45813;-43
2022/09/01 07:48:35;;;;;;;;;10.50;10.25;;;;;24.76;44.60;101102.19;5035498;28;45348;-49
2022/09/01 07:51:00;;;;;;;;;11.25;11.25;;;;;24.78;44.67;101097.63;5035558;28;45317;-59
2022/09/01 07:53:31;;;;;;;;;9.75;8.75;;;;;24.81;44.72;101100.06;5033554;28;46071;-52
2022/09/01 07:56:00;;;;;;;;;10.00;10.00;;;;;24.84;44.72;101105.16;5035179;28;45560;-50
2022/09/01 07:58:28;;;;;;;;;16.00;12.25;;;;;24.87;44.60;101104.94;5035078;28;45512;-55
2022/09/01 08:00:54;;;;;;;;;12.25;10.25;;;;;24.88;44.47;101109.28;5035365;28;45498;-55
2022/09/01 08:03:23;;;;;;;;;12.25;11.25;;;;;24.89;44.75;101113.63;5034866;28;45413;-47
2022/09/01 08:05:52;;;;;;;;;12.50;12.50;;;;;24.90;45.05;101110.03;5035022;28;45292;-45
2022/09/01 08:08:19;;;;;;;;;13.50;11.25;;;;;24.90;44.98;101109.19;5033684;28;45496;-49
2022/09/01 08:10:45;;;;;;;;;12.00;12.00;;;;;24.90;44.91;101110.03;5034390;28;45495;-45
2022/09/01 08:13:11;;;;;;;;;14.00;12.75;;;;;24.90;45.08;101104.72;5036999;28;46204;-46
2022/09/01 08:15:38;;;;;;;;;15.00;12.00;;;;;24.93;44.75;101109.81;5038532;28;45748;-46
2022/09/01 08:18:04;;;;;;;;;11.00;8.50;;;;;24.96;44.46;101108.75;5038514;28;45687;-43
2022/09/01 08:20:30;;;;;;;;;13.75;13.00;;;;;24.95;44.55;101107.91;5038092;28;45339;-51
2022/09/01 08:22:55;;;;;;;;;10.75;10.75;;;;;24.94;44.83;101106.22;5036800;28;47230;-45
2022/09/01 08:25:22;;;;;;;;;12.75;10.75;;;;;24.94;44.37;101110.66;5036342;28;45474;-50
2022/09/01 08:27:47;;;;;;;;;14.25;12.75;;;;;24.94;44.61;101111.53;5037315;28;45449;-50
2022/09/01 08:30:13;;;;;;;;;13.00;11.25;;;;;24.96;44.71;101114.94;5037783;28;45605;-50
2022/09/01 08:32:42;;;;;;;;;12.50;12.50;;;;;24.97;44.82;101115.75;5036252;28;46063;-56
2022/09/01 08:51:12;;;;;;;;;11.75;9.75;;;;;25.11;44.29;101112.13;5031719;28;45548;-48
2022/09/01 08:53:48;;;;;;;;;14.50;11.50;;;;;25.13;44.83;101110.22;5035251;28;45780;-52
2022/09/01 08:56:17;;;;;;;;;12.00;11.25;;;;;25.14;44.62;101106.63;5035943;28;46402;-53
2022/09/01 08:58:42;;;;;;;;;12.00;10.50;;;;;25.17;43.93;101111.72;5036692;28;45775;-53
2022/09/01 09:01:26;;;;;;;;;11.75;11.75;;;;;25.22;44.54;101119.34;5036080;28;45707;-54
2022/09/01 09:04:19;;;;;;;;;11.00;11.00;;;;;25.24;44.67;101114.78;5036898;28;45532;-54
2022/09/01 09:06:44;;;;;;;;;12.00;10.25;;;;;25.26;44.13;101124.31;5036044;28;45401;-52
2022/09/01 09:09:10;;;;;;;;;11.33;10.33;;;;;25.28;44.29;101118.88;5036493;28;45370;-49
2022/09/01 09:11:53;;;;;;;;;12.25;9.25;;;;;25.31;44.52;101118.69;5058789;28;45160;-49
2022/09/01 09:14:18;;;;;;;;;11.00;11.00;;;;;25.32;44.48;101115.91;5039773;28;45212;-51
2022/09/01 09:16:48;;;;;;;;;10.25;9.25;;;;;25.36;43.83;101118.34;5063101;28;46178;-50
2022/09/01 09:19:30;;;;;;;;;12.00;10.00;;;;;25.37;43.72;101117.38;5046244;28;45340;-51
2022/09/01 09:21:59;;;;;;;;;10.25;9.25;;;;;25.39;44.23;101118.97;5036889;28;45683;-52
2022/09/01 09:24:48;;;;;;;;;13.25;12.75;;;;;25.40;43.75;101122.47;5035356;28;45567;-52
2022/09/01 09:27:22;;;;;;;;;13.00;11.00;;;;;25.40;44.25;101118.03;5036353;28;46452;-51
2022/09/01 09:29:49;;;;;;;;;12.25;12.00;;;;;25.41;44.22;101119.75;5035341;28;45784;-50
2022/09/01 09:32:15;;;;;;;;;14.25;11.50;;;;;25.42;43.98;101115.25;5035538;28;45369;-49
2022/09/01 09:34:42;;;;;;;;;14.25;12.00;;;;;25.42;43.73;101124.09;5035798;28;45774;-49
2022/09/01 09:37:24;;;;;;;;;13.25;12.00;;;;;25.43;44.06;101116.97;5035858;28;45974;-52
2022/09/01 09:40:16;;;;;;;;;16.50;12.25;;;;;25.42;44.01;101109.97;5036375;28;45904;-50
2022/09/01 09:43:00;;;;;;;;;12.75;11.00;;;;;25.42;44.12;101112.63;5037238;28;45957;-50
2022/09/01 09:45:28;;;;;;;;;15.75;12.75;;;;;25.42;43.90;101104.66;5043772;28;45875;-50
2022/09/01 09:47:56;;;;;;;;;13.00;12.75;;;;;25.41;43.86;101101.16;5056178;28;46315;-52
2022/09/01 09:50:28;;;;;;;;;14.25;14.00;;;;;25.42;44.17;101108.16;5040787;28;45356;-50
2022/09/01 09:53:15;;;;;;;;;13.25;11.75;;;;;25.44;43.91;101103.59;5034870;28;45322;-48
2022/09/01 09:56:16;;;;;;;;;13.50;13.50;;;;;25.44;43.42;101097.44;5035932;28;45342;-51
2022/09/01 09:58:45;;;;;;;;;12.50;12.50;;;;;25.45;43.73;101093.81;5035115;28;45886;-51
2022/09/01 10:01:15;;;;;;;;;12.00;12.00;;;;;25.46;44.02;101101.69;5038750;28;45377;-49
2022/09/01 10:03:48;;;;;;;;;13.00;12.00;;;;;25.46;43.52;101096.38;5041266;28;45795;-51
2022/09/01 10:06:32;;;;;;;;;11.25;11.00;;;;;25.46;43.58;101100.84;5035646;28;45431;-48
2022/09/01 10:08:59;;;;;;;;;16.75;12.75;;;;;25.47;44.13;101099.88;5035023;28;46178;-51
2022/09/01 10:11:29;;;;;;;;;15.50;13.25;;;;;25.49;43.95;101100.63;5034877;28;46001;-51
2022/09/01 10:13:55;;;;;;;;;15.00;12.50;;;;;25.49;43.89;101100.63;5035242;28;45515;-49
2022/09/01 10:16:28;;;;;;;;;15.00;11.75;;;;;25.50;43.62;101097.00;5035841;28;45493;-49
2022/09/01 10:18:59;;;;;;;;;12.00;12.00;;;;;25.53;43.62;101091.44;5035505;28;47112;-48
2022/09/01 10:21:30;;;;;;;;;13.50;13.25;;;;;25.55;43.61;101094.00;5035129;28;45556;-51
2022/09/01 10:23:57;;;;;;;;;12.50;11.25;;;;;25.55;44.11;101091.38;5034900;28;45602;-49
2022/09/01 10:26:33;;;;;;;;;10.50;10.50;;;;;25.58;43.56;101099.06;5034340;28;45524;-49
2022/09/01 10:29:13;;;;;;;;;9.50;9.50;;;;;25.58;43.42;101097.28;5035198;28;46305;-48
2022/09/01 10:31:40;;;;;;;;;14.50;12.25;;;;;25.59;43.93;101085.72;5033932;28;45445;-50
2022/09/01 10:34:11;;;;;;;;;13.25;12.50;;;;;25.61;43.64;101086.47;5035161;28;45401;-49
2022/09/01 10:36:37;;;;;;;;;13.00;11.75;;;;;25.61;43.38;101089.09;5035324;28;45514;-50
2022/09/01 10:39:03;;;;;;;;;11.75;10.25;;;;;25.63;43.87;101095.13;5034528;28;45547;-50
2022/09/01 10:41:41;;;;;;;;;11.50;10.75;;;;;25.65;43.34;101088.88;5034971;28;45908;-52
2022/09/01 10:44:12;;;;;;;;;12.75;12.75;;;;;25.66;43.55;101085.25;5036136;28;45373;-51
2022/09/01 10:46:37;;;;;;;;;14.25;12.25;;;;;25.65;43.08;101084.41;5043464;28;45389;-51
2022/09/01 10:49:18;;;;;;;;;11.50;11.50;;;;;25.68;43.57;101078.03;5057342;28;47147;-50
2022/09/01 10:51:45;;;;;;;;;12.00;10.25;;;;;25.67;43.41;101087.81;5055061;28;45104;-52
2022/09/01 10:54:39;;;;;;;;;10.25;10.25;;;;;25.69;42.96;101080.56;5056363;28;45149;-50
2022/09/01 10:57:34;;;;;;;;;16.00;11.75;;;;;25.69;43.11;101077.91;5036332;28;45643;-52
2022/09/01 11:00:33;;;;;;;;;10.00;10.00;;;;;25.70;43.04;101086.72;5037847;28;46470;-52
2022/09/01 11:03:11;;;;;;;;;10.50;10.25;;;;;25.70;42.99;101086.72;5036383;28;45679;-50
2022/09/01 11:06:03;;;;;;;;;10.25;10.25;;;;;25.70;42.79;101082.25;5034704;28;45935;-52
2022/09/01 11:08:28;;;;;;;;;11.50;11.00;;;;;25.70;42.92;101074.28;5057771;28;45672;-48
2022/09/01 11:11:01;;;;;;;;;11.00;9.67;;;;;25.72;43.40;101074.19;5047324;28;45379;-49
2022/09/01 11:13:49;;;;;;;;;13.25;10.25;;;;;25.72;43.11;101076.84;5035893;28;45769;-51
2022/09/01 11:16:25;;;;;;;;;12.75;10.00;;;;;25.71;43.31;101064.53;5034611;28;45374;-49
2022/09/01 11:18:50;;;;;;;;;9.75;9.25;;;;;25.72;43.45;101064.41;5037102;28;45746;-51
2022/09/01 11:21:25;;;;;;;;;12.50;10.50;;;;;25.71;42.99;101064.53;5039788;28;46021;-49
2022/09/01 11:23:50;;;;;;;;;12.75;11.50;;;;;25.73;42.71;101058.16;5036214;28;45329;-48
2022/09/01 11:26:34;;;;;;;;;12.00;10.00;;;;;25.74;42.91;101061.66;5038999;28;45372;-51
2022/09/01 11:29:00;;;;;;;;;13.00;10.75;;;;;25.73;42.94;101055.50;5043320;28;44787;-50
2022/09/01 11:31:29;;;;;;;;;12.25;12.25;;;;;25.76;42.65;101057.06;5047243;28;46295;-48
2022/09/01 11:34:09;;;;;;;;;11.50;10.00;;;;;25.76;42.57;101057.06;5048516;28;45945;-51
2022/09/01 11:36:51;;;;;;;;;9.50;8.00;;;;;25.76;42.61;101060.59;5040026;28;45393;-51
2022/09/01 11:39:16;;;;;;;;;9.25;9.25;;;;;25.76;42.88;101055.28;5035798;28;45531;-51
2022/09/01 11:41:51;;;;;;;;;9.00;9.00;;;;;25.78;42.46;101057.81;5034763;28;45989;-50